Time;durP1;ratioP1;P1;durP2;ratioP2;P2;SDS_P1;SDS_P2;PMS_P1;PMS_P2;Temp;Humidity;BMP_temperature;BMP_pressure;BME280_temperature;BME280_humidity;BME280_pressure;Samples;Min_cycle;Max_cycle;Signal;HPM_P1;HPM_P2
2022/07/26 00:00:58;;;;;;;5.40;2.85;;;29.00;56.70;;;;;;5021576;28;20041;-60
2022/07/26 00:03:23;;;;;;;8.85;2.85;;;29.00;56.80;;;;;;5021635;28;20030;-60
2022/07/26 00:05:49;;;;;;;5.22;2.42;;;29.00;56.70;;;;;;5024269;28;20087;-60
2022/07/26 00:08:14;;;;;;;2.80;2.25;;;29.00;56.60;;;;;;5024797;28;20087;-59
2022/07/26 00:10:44;;;;;;;2.83;2.30;;;28.90;56.50;;;;;;5027333;28;20026;-60
2022/07/26 00:13:10;;;;;;;2.70;2.10;;;28.90;56.60;;;;;;5024755;28;20347;-60
2022/07/26 00:15:36;;;;;;;4.55;2.10;;;28.90;56.60;;;;;;5023010;28;20033;-60
2022/07/26 00:18:01;;;;;;;4.88;2.65;;;28.80;56.60;;;;;;5022573;28;20076;-60
2022/07/26 00:20:27;;;;;;;4.22;2.60;;;28.80;56.60;;;;;;5024308;28;20029;-60
2022/07/26 00:22:52;;;;;;;4.25;2.40;;;28.80;56.70;;;;;;5022951;28;20057;-60
2022/07/26 00:25:18;;;;;;;3.50;2.35;;;28.80;56.70;;;;;;5024984;28;20092;-60
2022/07/26 00:27:43;;;;;;;5.80;2.50;;;28.80;56.70;;;;;;5022612;28;20116;-60
2022/07/26 00:30:10;;;;;;;4.35;2.67;;;28.80;56.70;;;;;;5007696;28;20396;-60
2022/07/26 00:32:35;;;;;;;3.60;2.30;;;28.70;56.70;;;;;;5022630;28;20033;-60
2022/07/26 00:35:01;;;;;;;7.68;2.75;;;28.70;57.40;;;;;;5022652;28;20083;-59
2022/07/26 00:37:27;;;;;;;5.82;2.97;;;28.70;56.80;;;;;;5020353;28;20101;-60
2022/07/26 00:39:52;;;;;;;3.30;2.35;;;28.70;56.80;;;;;;5023761;28;20194;-60
2022/07/26 00:42:18;;;;;;;4.05;2.90;;;28.70;56.80;;;;;;5025185;28;20037;-60
2022/07/26 00:44:44;;;;;;;3.28;2.30;;;28.60;56.80;;;;;;5020240;28;20124;-60
2022/07/26 00:47:09;;;;;;;4.35;2.67;;;28.60;56.80;;;;;;5006270;28;20030;-60
2022/07/26 00:49:35;;;;;;;6.80;2.53;;;28.60;57.00;;;;;;5007221;28;20033;-60
2022/07/26 00:52:01;;;;;;;7.53;2.97;;;28.60;56.90;;;;;;5022993;28;20028;-59
2022/07/26 00:54:26;;;;;;;6.32;3.83;;;28.50;56.90;;;;;;5019801;28;20558;-60
2022/07/26 00:56:53;;;;;;;7.18;3.58;;;28.50;56.90;;;;;;5022313;28;20072;-60
2022/07/26 00:59:18;;;;;;;5.10;3.08;;;28.50;57.00;;;;;;5021167;28;20038;-60
2022/07/26 01:01:44;;;;;;;7.15;3.28;;;28.40;57.00;;;;;;5023679;28;20040;-61
2022/07/26 01:04:09;;;;;;;4.72;2.92;;;28.50;57.10;;;;;;5023850;28;20037;-59
2022/07/26 01:06:35;;;;;;;8.43;2.88;;;28.40;57.20;;;;;;5022887;28;20040;-60
2022/07/26 01:09:01;;;;;;;6.28;2.85;;;28.50;57.30;;;;;;5023612;28;20064;-60
2022/07/26 01:11:27;;;;;;;4.05;3.20;;;28.40;57.10;;;;;;5008824;28;20013;-60
2022/07/26 01:13:52;;;;;;;6.95;3.15;;;28.40;57.20;;;;;;5005833;28;20064;-60
2022/07/26 01:16:18;;;;;;;6.30;3.13;;;28.40;57.20;;;;;;5020417;28;20500;-59
2022/07/26 01:18:43;;;;;;;5.68;3.10;;;28.40;57.40;;;;;;5021789;28;20516;-60
2022/07/26 01:21:09;;;;;;;11.00;4.00;;;28.30;57.60;;;;;;5022427;28;20061;-60
2022/07/26 01:23:35;;;;;;;15.35;4.95;;;28.30;57.80;;;;;;5023035;28;21469;-60
2022/07/26 01:26:01;;;;;;;7.45;3.35;;;28.30;57.80;;;;;;5023081;28;20132;-60
2022/07/26 01:28:26;;;;;;;5.95;3.47;;;28.30;57.60;;;;;;5023473;28;20416;-60
2022/07/26 01:30:52;;;;;;;8.93;3.60;;;28.30;57.70;;;;;;5023625;28;20229;-60
2022/07/26 01:33:17;;;;;;;7.82;3.58;;;28.30;57.80;;;;;;5021339;28;20097;-60
2022/07/26 01:35:43;;;;;;;6.00;3.10;;;28.20;57.90;;;;;;5022430;28;20417;-60
2022/07/26 01:38:08;;;;;;;23.17;6.85;;;28.20;58.00;;;;;;5020906;28;20033;-60
2022/07/26 01:40:34;;;;;;;9.00;3.67;;;28.20;58.50;;;;;;5024453;28;20037;-59
2022/07/26 01:42:59;;;;;;;8.88;3.60;;;28.20;58.40;;;;;;5023581;28;20049;-60
2022/07/26 01:45:25;;;;;;;6.13;3.35;;;28.20;58.10;;;;;;5022604;28;20488;-60
2022/07/26 01:47:50;;;;;;;6.68;3.25;;;28.10;57.90;;;;;;5021767;28;20064;-59
2022/07/26 01:50:16;;;;;;;6.97;3.20;;;28.10;58.00;;;;;;5021657;28;20497;-59
2022/07/26 01:52:42;;;;;;;4.60;2.80;;;28.10;58.20;;;;;;5025029;28;20025;-60
2022/07/26 01:55:08;;;;;;;5.50;2.70;;;28.00;58.30;;;;;;5022383;28;20040;-59
2022/07/26 01:57:33;;;;;;;6.03;2.42;;;28.00;58.60;;;;;;5021737;28;20037;-60
2022/07/26 01:59:59;;;;;;;6.78;3.03;;;27.90;58.80;;;;;;5023587;28;20073;-59
2022/07/26 02:02:24;;;;;;;6.93;2.80;;;27.90;58.90;;;;;;5019993;28;20032;-60
2022/07/26 02:04:59;;;;;;;4.30;2.47;;;27.90;59.00;;;;;;5008066;28;20045;-59
2022/07/26 02:07:28;;;;;;;3.10;2.08;;;27.90;59.10;;;;;;5019427;28;20741;-60
2022/07/26 02:09:54;;;;;;;4.60;2.35;;;27.90;59.30;;;;;;5020867;28;20380;-60
2022/07/26 02:12:19;;;;;;;6.03;2.45;;;27.80;59.50;;;;;;5020448;28;20095;-60
2022/07/26 02:14:45;;;;;;;3.40;2.47;;;27.80;59.40;;;;;;5023664;28;20536;-60
2022/07/26 02:17:10;;;;;;;3.55;2.50;;;27.80;59.50;;;;;;5022059;28;20158;-60
2022/07/26 02:19:36;;;;;;;3.63;2.38;;;27.70;59.40;;;;;;5022269;28;20040;-60
2022/07/26 02:22:02;;;;;;;4.55;2.03;;;27.80;59.60;;;;;;5021981;28;20036;-60
2022/07/26 02:24:28;;;;;;;5.68;2.33;;;27.80;59.80;;;;;;5022563;28;20058;-60
2022/07/26 02:26:54;;;;;;;3.17;1.90;;;27.70;59.70;;;;;;5021964;28;20056;-60
2022/07/26 02:29:20;;;;;;;4.80;2.00;;;27.70;59.90;;;;;;5020860;28;20538;-60
2022/07/26 02:31:45;;;;;;;4.20;1.83;;;27.70;59.90;;;;;;5022295;28;20041;-61
2022/07/26 02:34:11;;;;;;;2.05;1.85;;;27.70;59.90;;;;;;5019347;28;20036;-60
2022/07/26 02:36:36;;;;;;;2.78;2.10;;;27.70;60.00;;;;;;5019376;28;20029;-60
2022/07/26 02:39:02;;;;;;;2.92;2.20;;;27.70;60.20;;;;;;5019126;28;20046;-60
2022/07/26 02:41:28;;;;;;;3.20;2.08;;;27.60;60.20;;;;;;5020979;28;20052;-60
2022/07/26 02:43:53;;;;;;;5.07;2.05;;;27.60;60.30;;;;;;5020191;28;20082;-60
2022/07/26 02:46:19;;;;;;;4.28;1.95;;;27.60;60.40;;;;;;5022431;28;20041;-61
2022/07/26 02:48:44;;;;;;;2.15;1.60;;;27.60;60.80;;;;;;5022580;28;20239;-60
2022/07/26 02:51:10;;;;;;;4.07;1.90;;;27.50;60.60;;;;;;5022707;28;20108;-60
2022/07/26 02:53:35;;;;;;;3.63;1.90;;;27.50;60.90;;;;;;5022619;28;20120;-59
2022/07/26 02:56:01;;;;;;;5.00;1.73;;;27.50;61.10;;;;;;5021870;28;20120;-59
2022/07/26 02:58:26;;;;;;;5.28;2.20;;;27.50;61.20;;;;;;5020947;28;20492;-59
2022/07/26 03:00:52;;;;;;;3.03;1.88;;;27.50;61.30;;;;;;5019822;28;20641;-59
2022/07/26 03:03:17;;;;;;;3.80;1.83;;;27.40;61.30;;;;;;5022317;28;20064;-59
2022/07/26 03:05:43;;;;;;;6.53;2.13;;;27.40;61.50;;;;;;5021575;28;20080;-59
2022/07/26 03:08:09;;;;;;;5.78;2.20;;;27.40;61.60;;;;;;5017824;28;20037;-59
2022/07/26 03:10:34;;;;;;;6.65;2.05;;;27.40;61.70;;;;;;5021193;28;20615;-59
2022/07/26 03:13:00;;;;;;;3.63;2.63;;;27.40;61.90;;;;;;5022058;28;20108;-59
2022/07/26 03:15:25;;;;;;;7.03;2.53;;;27.30;61.70;;;;;;5021842;28;20024;-59
2022/07/26 03:17:51;;;;;;;3.00;2.40;;;27.40;61.90;;;;;;5021180;28;20049;-59
2022/07/26 03:20:16;;;;;;;4.00;2.30;;;27.30;62.00;;;;;;5018097;28;20034;-61
2022/07/26 03:22:42;;;;;;;2.75;1.95;;;27.30;62.30;;;;;;5021720;28;20032;-59
2022/07/26 03:25:07;;;;;;;4.65;1.80;;;27.30;62.70;;;;;;5021879;28;20058;-59
2022/07/26 03:27:33;;;;;;;4.43;1.70;;;27.20;62.70;;;;;;5020373;28;20061;-60
2022/07/26 03:29:59;;;;;;;1.88;1.70;;;27.20;62.80;;;;;;5019348;28;20029;-60
2022/07/26 03:32:24;;;;;;;2.30;1.60;;;27.20;63.10;;;;;;5004270;28;20592;-60
2022/07/26 03:34:50;;;;;;;4.18;1.88;;;27.20;63.20;;;;;;5023665;28;20368;-59
2022/07/26 03:37:15;;;;;;;4.57;1.80;;;27.10;63.10;;;;;;5019624;28;20473;-60
2022/07/26 03:39:41;;;;;;;2.13;1.42;;;27.10;63.20;;;;;;5022065;28;20112;-59
2022/07/26 03:42:06;;;;;;;2.60;1.60;;;27.10;63.20;;;;;;5024303;28;20037;-60
2022/07/26 03:44:32;;;;;;;3.78;1.55;;;27.10;63.30;;;;;;5023617;28;20400;-59
2022/07/26 03:46:58;;;;;;;3.75;2.05;;;27.10;63.40;;;;;;5022858;28;20500;-60
2022/07/26 03:49:23;;;;;;;1.83;1.27;;;27.00;63.40;;;;;;5023254;28;20127;-59
2022/07/26 03:51:49;;;;;;;2.95;1.50;;;27.00;63.40;;;;;;5025609;28;20045;-60
2022/07/26 03:54:14;;;;;;;2.60;1.60;;;27.00;63.50;;;;;;5025518;28;20073;-60
2022/07/26 03:56:40;;;;;;;2.15;1.60;;;27.00;63.40;;;;;;5025458;28;20055;-60
2022/07/26 03:59:07;;;;;;;6.20;1.80;;;27.00;63.60;;;;;;5022299;28;20048;-59
2022/07/26 04:01:33;;;;;;;8.98;2.83;;;27.00;63.40;;;;;;5023685;28;20041;-60
2022/07/26 04:03:59;;;;;;;7.82;1.90;;;27.00;63.60;;;;;;5023435;28;21778;-59
2022/07/26 04:06:24;;;;;;;8.02;2.42;;;27.00;63.60;;;;;;5023068;28;20032;-60
2022/07/26 04:08:50;;;;;;;12.63;2.65;;;26.90;64.00;;;;;;5022028;28;20034;-59
2022/07/26 04:11:15;;;;;;;13.30;2.33;;;26.90;64.00;;;;;;5026773;28;20064;-59
2022/07/26 04:13:41;;;;;;;10.07;2.75;;;26.90;64.40;;;;;;5026781;28;20029;-59
2022/07/26 04:16:07;;;;;;;14.18;2.55;;;26.80;64.80;;;;;;5026361;28;20033;-60
2022/07/26 04:18:32;;;;;;;18.25;3.22;;;26.80;64.50;;;;;;5024728;28;20053;-60
2022/07/26 04:20:58;;;;;;;23.73;3.03;;;26.80;64.60;;;;;;5022641;28;20026;-60
2022/07/26 04:23:23;;;;;;;17.52;2.53;;;26.70;64.60;;;;;;5024924;28;20123;-60
2022/07/26 04:25:49;;;;;;;12.55;2.20;;;26.70;64.70;;;;;;5022206;28;20040;-60
2022/07/26 04:28:15;;;;;;;8.52;2.08;;;26.70;64.80;;;;;;5022227;28;20144;-60
2022/07/26 04:30:40;;;;;;;7.97;2.10;;;26.60;64.90;;;;;;5021528;28;20029;-61
2022/07/26 04:33:06;;;;;;;9.00;1.88;;;26.60;64.90;;;;;;5025358;28;20040;-60
2022/07/26 04:35:32;;;;;;;4.95;1.30;;;26.60;65.00;;;;;;5024929;28;20387;-60
2022/07/26 04:37:57;;;;;;;7.10;1.70;;;26.60;65.50;;;;;;5022937;28;20485;-59
2022/07/26 04:40:24;;;;;;;10.15;1.75;;;26.60;65.40;;;;;;5005843;28;20107;-59
2022/07/26 04:42:50;;;;;;;4.28;1.48;;;26.60;66.00;;;;;;5007301;28;20045;-60
2022/07/26 04:45:15;;;;;;;9.15;1.63;;;26.60;65.40;;;;;;5022973;28;20046;-59
2022/07/26 04:47:42;;;;;;;5.15;1.73;;;26.50;65.20;;;;;;5024337;28;20050;-60
2022/07/26 04:50:08;;;;;;;8.38;1.52;;;26.50;65.30;;;;;;5022117;28;20045;-59
2022/07/26 04:52:33;;;;;;;13.57;1.50;;;26.50;65.40;;;;;;5024143;28;20025;-59
2022/07/26 04:54:59;;;;;;;2.97;1.38;;;26.50;65.50;;;;;;5023592;28;20381;-60
2022/07/26 04:57:24;;;;;;;3.58;1.13;;;26.40;65.60;;;;;;5025615;28;20563;-59
2022/07/26 04:59:50;;;;;;;3.75;1.40;;;26.40;65.80;;;;;;5025535;28;20099;-60
2022/07/26 05:02:17;;;;;;;3.53;1.33;;;26.40;65.90;;;;;;5025421;28;20091;-59
2022/07/26 05:04:42;;;;;;;5.50;1.50;;;26.30;66.40;;;;;;5025028;28;20033;-60
2022/07/26 05:07:08;;;;;;;1.77;0.95;;;26.30;66.50;;;;;;5022907;28;20032;-59
2022/07/26 05:09:33;;;;;;;5.38;1.25;;;26.30;66.50;;;;;;5023270;28;20562;-59
2022/07/26 05:11:59;;;;;;;4.47;1.25;;;26.30;66.70;;;;;;5021352;28;20041;-59
2022/07/26 05:14:24;;;;;;;4.55;1.58;;;26.30;66.80;;;;;;5023545;28;20029;-59
2022/07/26 05:16:50;;;;;;;5.47;1.27;;;26.20;67.00;;;;;;5024650;28;20046;-59
2022/07/26 05:19:15;;;;;;;2.33;1.15;;;26.20;67.00;;;;;;5024685;28;20083;-60
2022/07/26 05:21:56;;;;;;;4.38;1.20;;;26.10;67.10;;;;;;4989571;28;20161;-59
2022/07/26 05:24:22;;;;;;;4.38;1.20;;;26.10;67.20;;;;;;5023474;28;20481;-59
2022/07/26 05:26:47;;;;;;;2.80;1.08;;;26.10;67.30;;;;;;5022496;28;20048;-60
2022/07/26 05:29:13;;;;;;;3.83;1.27;;;26.20;67.50;;;;;;5023984;28;20473;-59
2022/07/26 05:31:38;;;;;;;1.95;1.10;;;26.10;67.60;;;;;;5022311;28;20073;-60
2022/07/26 05:34:04;;;;;;;3.33;1.15;;;26.10;67.90;;;;;;5023673;28;20112;-60
2022/07/26 05:36:29;;;;;;;4.13;1.10;;;26.10;67.90;;;;;;5018965;28;20133;-60
2022/07/26 05:38:55;;;;;;;2.22;1.10;;;26.10;68.20;;;;;;5017118;28;20026;-60
2022/07/26 05:41:20;;;;;;;4.63;1.48;;;26.10;68.40;;;;;;5019373;28;20027;-60
2022/07/26 05:43:46;;;;;;;2.72;1.23;;;26.10;68.80;;;;;;5016962;28;20526;-60
2022/07/26 05:46:11;;;;;;;6.22;1.75;;;26.10;68.90;;;;;;5015047;28;20056;-60
2022/07/26 05:48:38;;;;;;;2.40;1.10;;;26.00;69.00;;;;;;4999937;28;20040;-61
2022/07/26 05:51:03;;;;;;;5.68;0.90;;;26.00;69.00;;;;;;5015999;28;21776;-61
2022/07/26 05:53:29;;;;;;;1.92;0.98;;;26.00;69.10;;;;;;5016985;28;20041;-60
2022/07/26 05:55:54;;;;;;;3.17;0.98;;;26.00;69.10;;;;;;5014657;28;20025;-61
2022/07/26 05:58:20;;;;;;;3.70;1.10;;;26.00;69.10;;;;;;5015460;28;20567;-60
2022/07/26 06:00:45;;;;;;;3.22;1.00;;;25.90;69.10;;;;;;5013252;28;20025;-60
2022/07/26 06:03:23;;;;;;;1.85;1.13;;;25.90;68.90;;;;;;5014950;28;20104;-60
2022/07/26 06:05:53;;;;;;;2.05;1.30;;;25.90;69.00;;;;;;5014071;28;20081;-61
2022/07/26 06:08:18;;;;;;;4.30;1.20;;;25.90;69.60;;;;;;5013114;28;20037;-61
2022/07/26 06:10:45;;;;;;;2.20;1.20;;;25.90;69.40;;;;;;5010050;28;20619;-60
2022/07/26 06:13:10;;;;;;;3.13;1.30;;;25.90;69.50;;;;;;5009646;28;20102;-63
2022/07/26 06:15:37;;;;;;;2.60;1.30;;;25.90;69.90;;;;;;5009352;28;20059;-60
2022/07/26 06:18:05;;;;;;;4.20;1.70;;;25.90;70.40;;;;;;5009938;28;20068;-60
2022/07/26 06:20:31;;;;;;;6.47;1.55;;;25.80;70.70;;;;;;5011887;28;20576;-61
2022/07/26 06:22:57;;;;;;;3.28;1.60;;;25.80;71.20;;;;;;5013475;28;20292;-61
2022/07/26 06:25:23;;;;;;;5.93;1.30;;;25.80;71.10;;;;;;5012700;28;20043;-61
2022/07/26 06:27:49;;;;;;;4.68;1.40;;;25.80;71.40;;;;;;5014092;28;20104;-60
2022/07/26 06:30:14;;;;;;;5.65;1.85;;;25.70;71.60;;;;;;5016898;28;20471;-62
2022/07/26 06:32:43;;;;;;;4.70;1.73;;;25.70;72.00;;;;;;4995701;28;20113;-61
2022/07/26 06:35:11;;;;;;;3.20;1.40;;;25.70;72.00;;;;;;5015445;28;20022;-60
2022/07/26 06:37:37;;;;;;;4.07;1.70;;;25.70;72.70;;;;;;5014854;28;20060;-61
2022/07/26 06:40:04;;;;;;;6.55;1.60;;;25.70;72.90;;;;;;5016125;28;20461;-61
2022/07/26 06:42:31;;;;;;;8.43;2.28;;;25.70;73.10;;;;;;5014618;28;20887;-60
2022/07/26 06:44:57;;;;;;;9.75;2.20;;;25.70;73.60;;;;;;5014447;28;20307;-61
2022/07/26 06:47:23;;;;;;;7.63;1.55;;;25.70;73.80;;;;;;5012101;28;20633;-61
2022/07/26 06:49:48;;;;;;;5.80;1.90;;;25.60;74.00;;;;;;5013525;28;20470;-61
2022/07/26 06:52:14;;;;;;;5.90;1.90;;;25.60;73.90;;;;;;5016430;28;20496;-60
2022/07/26 06:54:39;;;;;;;4.63;1.92;;;25.60;74.20;;;;;;5010277;28;20069;-60
2022/07/26 06:57:05;;;;;;;9.52;2.28;;;25.60;74.10;;;;;;5014073;28;20033;-60
2022/07/26 06:59:30;;;;;;;10.35;2.22;;;25.60;75.10;;;;;;5015999;28;20104;-61
2022/07/26 07:01:56;;;;;;;7.72;1.75;;;25.60;74.50;;;;;;5011720;28;20050;-61
2022/07/26 07:04:21;;;;;;;6.15;1.92;;;25.60;74.50;;;;;;4996856;28;20025;-61
2022/07/26 07:06:47;;;;;;;5.40;2.05;;;25.60;74.50;;;;;;5001891;28;20480;-61
2022/07/26 07:09:12;;;;;;;6.90;1.70;;;25.60;74.70;;;;;;5011174;28;20481;-61
2022/07/26 07:11:38;;;;;;;7.18;2.08;;;25.60;74.80;;;;;;5012083;28;20060;-60
2022/07/26 07:14:03;;;;;;;9.80;2.40;;;25.60;74.70;;;;;;5018862;28;20073;-60
2022/07/26 07:16:29;;;;;;;4.43;1.73;;;25.60;75.10;;;;;;5021364;28;20021;-60
2022/07/26 07:18:54;;;;;;;8.48;2.20;;;25.60;75.20;;;;;;5023096;28;21988;-60
2022/07/26 07:21:20;;;;;;;18.30;2.70;;;25.60;75.20;;;;;;5030294;28;20515;-61
2022/07/26 07:23:45;;;;;;;15.63;2.33;;;25.60;75.20;;;;;;5019209;28;20050;-61
2022/07/26 07:26:11;;;;;;;10.95;2.10;;;25.60;75.10;;;;;;5017470;28;20070;-60
2022/07/26 07:28:39;;;;;;;15.32;2.65;;;25.60;75.00;;;;;;5016089;28;20451;-61
2022/07/26 07:31:05;;;;;;;30.92;3.75;;;25.60;75.60;;;;;;5016263;28;20037;-60
2022/07/26 07:33:30;;;;;;;13.07;2.50;;;25.60;75.80;;;;;;5021750;28;20058;-60
2022/07/26 07:35:56;;;;;;;21.55;2.63;;;25.50;76.80;;;;;;5021546;28;20041;-60
2022/07/26 07:38:21;;;;;;;13.02;2.47;;;25.50;77.00;;;;;;5022699;28;20130;-61
2022/07/26 07:40:47;;;;;;;19.13;3.63;;;25.40;77.50;;;;;;5021078;28;20701;-60
2022/07/26 07:43:12;;;;;;;26.52;3.92;;;25.30;78.40;;;;;;5020713;28;20052;-60
2022/07/26 07:45:38;;;;;;;34.97;4.57;;;25.20;79.00;;;;;;5020459;28;20061;-60
2022/07/26 07:48:04;;;;;;;31.63;3.72;;;25.10;79.30;;;;;;5022671;28;20467;-61
2022/07/26 07:50:30;;;;;;;19.08;3.05;;;25.10;79.70;;;;;;5006054;28;20052;-61
2022/07/26 07:52:56;;;;;;;40.83;5.38;;;25.00;79.80;;;;;;5021140;28;20075;-61
2022/07/26 07:55:21;;;;;;;25.58;2.90;;;25.00;80.00;;;;;;5022294;28;20034;-61
2022/07/26 07:57:47;;;;;;;20.65;2.80;;;25.00;80.30;;;;;;5021033;28;20108;-61
2022/07/26 08:00:15;;;;;;;9.77;2.55;;;24.90;80.20;;;;;;5021868;28;20033;-61
2022/07/26 08:02:41;;;;;;;22.52;3.70;;;24.90;80.50;;;;;;5022471;28;20037;-61
2022/07/26 08:05:08;;;;;;;20.77;2.95;;;24.90;80.80;;;;;;5022561;28;20030;-61
2022/07/26 08:07:33;;;;;;;8.52;2.67;;;24.90;80.80;;;;;;5022287;28;20414;-61
2022/07/26 08:09:59;;;;;;;13.82;2.60;;;24.90;81.20;;;;;;5013453;28;20057;-61
2022/07/26 08:12:24;;;;;;;16.98;2.88;;;24.80;81.20;;;;;;5020832;28;20107;-61
2022/07/26 08:14:50;;;;;;;30.23;4.20;;;24.90;81.40;;;;;;5019610;28;20133;-61
2022/07/26 08:17:15;;;;;;;13.02;2.42;;;24.90;81.20;;;;;;5018271;28;20409;-61
2022/07/26 08:19:41;;;;;;;16.15;3.17;;;24.90;80.90;;;;;;4997985;28;20030;-61
2022/07/26 08:22:07;;;;;;;27.77;3.80;;;24.90;81.30;;;;;;4997937;28;20061;-61
2022/07/26 08:24:33;;;;;;;30.45;5.10;;;24.90;81.10;;;;;;5014570;28;20606;-61
2022/07/26 08:26:58;;;;;;;34.45;3.70;;;24.90;80.80;;;;;;5013028;28;20565;-61
2022/07/26 08:29:24;;;;;;;42.17;3.95;;;24.90;80.90;;;;;;5012624;28;20037;-61
2022/07/26 08:31:51;;;;;;;45.50;6.50;;;24.90;80.90;;;;;;5012797;28;20037;-62
2022/07/26 08:34:17;;;;;;;38.45;5.18;;;24.90;81.00;;;;;;5013419;28;20460;-61
2022/07/26 08:36:42;;;;;;;43.65;4.47;;;24.90;81.20;;;;;;5014474;28;20044;-62
2022/07/26 08:39:08;;;;;;;28.55;3.80;;;24.90;81.10;;;;;;5009284;28;20038;-61
2022/07/26 08:41:34;;;;;;;33.35;4.80;;;24.90;80.90;;;;;;5006514;28;20112;-61
2022/07/26 08:44:06;;;;;;;55.55;7.45;;;24.90;81.10;;;;;;5013967;28;20120;-61
2022/07/26 08:46:36;;;;;;;40.53;5.93;;;24.90;81.30;;;;;;4999878;28;20025;-61
2022/07/26 08:49:03;;;;;;;50.78;6.10;;;24.90;80.90;;;;;;5011853;28;22082;-61
2022/07/26 08:51:28;;;;;;;22.90;3.95;;;24.90;80.80;;;;;;5014545;28;20026;-62
2022/07/26 08:53:55;;;;;;;25.05;4.55;;;24.90;81.10;;;;;;5012472;28;20029;-65
2022/07/26 08:56:21;;;;;;;27.70;4.07;;;24.90;81.10;;;;;;4993576;28;20033;-61
2022/07/26 08:58:46;;;;;;;30.27;4.50;;;24.90;81.20;;;;;;5013996;28;20041;-61
2022/07/26 09:01:12;;;;;;;25.65;4.30;;;24.90;81.10;;;;;;5017354;28;20053;-61
2022/07/26 09:03:38;;;;;;;17.88;3.55;;;24.90;81.30;;;;;;5016764;28;20079;-62
2022/07/26 09:06:13;;;;;;;16.08;3.63;;;24.90;81.10;;;;;;5019354;28;20025;-61
2022/07/26 09:08:39;;;;;;;18.88;2.67;;;24.90;81.10;;;;;;5015102;28;20026;-60
2022/07/26 09:11:23;;;;;;;11.15;2.75;;;24.90;80.80;;;;;;4992557;28;20029;-61
2022/07/26 09:13:56;;;;;;;25.05;3.60;;;24.90;80.60;;;;;;5014677;28;20092;-61
2022/07/26 09:16:21;;;;;;;70.70;7.32;;;24.90;80.40;;;;;;5000749;28;20021;-61
2022/07/26 09:18:47;;;;;;;44.28;5.65;;;24.90;80.30;;;;;;4988370;28;20168;-60
2022/07/26 09:21:45;;;;;;;30.20;6.40;;;24.80;80.10;;;;;;5014101;28;20053;-61
2022/07/26 09:24:11;;;;;;;37.83;5.78;;;24.80;80.10;;;;;;4972848;28;20366;-61
2022/07/26 09:26:36;;;;;;;19.80;3.85;;;24.90;80.10;;;;;;5014323;28;20513;-61
2022/07/26 09:29:09;;;;;;;13.38;2.90;;;24.90;79.90;;;;;;5010760;28;20375;-61
2022/07/26 09:31:35;;;;;;;54.40;7.72;;;24.90;79.80;;;;;;5012074;28;20036;-61
2022/07/26 09:34:01;;;;;;;50.38;7.90;;;24.90;79.90;;;;;;5011442;28;20412;-61
2022/07/26 09:36:27;;;;;;;32.75;8.98;;;24.90;79.60;;;;;;4994966;28;20030;-61
2022/07/26 09:38:57;;;;;;;22.13;5.43;;;24.90;79.70;;;;;;4993877;28;20048;-61
2022/07/26 09:41:35;;;;;;;25.60;6.57;;;25.00;79.30;;;;;;5008226;28;20029;-61
2022/07/26 09:44:03;;;;;;;22.20;5.05;;;25.00;79.00;;;;;;4986380;28;20049;-61
2022/07/26 09:46:29;;;;;;;72.00;11.48;;;25.00;78.50;;;;;;4994461;28;20032;-61
2022/07/26 09:48:55;;;;;;;30.35;4.93;;;25.00;78.30;;;;;;4994791;28;20267;-61
2022/07/26 09:51:34;;;;;;;32.45;5.07;;;25.00;78.10;;;;;;5002808;28;20575;-60
2022/07/26 09:53:59;;;;;;;27.42;4.72;;;25.00;77.80;;;;;;5013793;28;20112;-61
2022/07/26 09:56:29;;;;;;;47.53;6.57;;;25.00;77.80;;;;;;4981615;28;20029;-61
2022/07/26 09:58:54;;;;;;;68.32;9.57;;;25.10;78.00;;;;;;4994347;28;20039;-61
2022/07/26 10:01:20;;;;;;;37.55;5.30;;;25.10;77.90;;;;;;5009730;28;20021;-61
2022/07/26 10:03:45;;;;;;;28.20;4.30;;;25.10;77.90;;;;;;4995097;28;20109;-61
2022/07/26 10:06:11;;;;;;;39.30;4.88;;;25.10;77.80;;;;;;4991399;28;20611;-61
2022/07/26 10:08:36;;;;;;;61.28;7.40;;;25.20;77.80;;;;;;5007964;28;20061;-60
2022/07/26 10:11:06;;;;;;;37.05;5.28;;;25.10;77.50;;;;;;5010348;28;20121;-59
2022/07/26 10:13:31;;;;;;;22.55;3.78;;;25.20;77.80;;;;;;4998461;28;20029;-61
2022/07/26 10:15:57;;;;;;;26.73;4.10;;;25.20;77.90;;;;;;5013988;28;20661;-61
2022/07/26 10:18:35;;;;;;;15.50;3.72;;;25.20;77.70;;;;;;5013798;28;20056;-61
2022/07/26 10:21:20;;;;;;;26.73;4.13;;;25.20;77.10;;;;;;5020430;28;20040;-58
2022/07/26 10:23:51;;;;;;;36.83;8.93;;;25.20;77.30;;;;;;5001508;28;20128;-61
2022/07/26 10:26:32;;;;;;;32.70;8.23;;;25.30;76.70;;;;;;5012257;28;20036;-61
2022/07/26 10:29:16;;;;;;;15.48;4.72;;;25.30;76.30;;;;;;5007423;28;20045;-61
2022/07/26 10:31:48;;;;;;;15.10;4.65;;;25.30;75.80;;;;;;5015470;28;20737;-61
2022/07/26 10:34:36;;;;;;;35.90;7.10;;;25.40;75.60;;;;;;5007030;28;20025;-62
2022/07/26 10:37:06;;;;;;;29.80;6.22;;;25.50;75.40;;;;;;5011323;28;20047;-60
2022/07/26 10:39:32;;;;;;;23.92;4.75;;;25.50;75.20;;;;;;5012799;28;20026;-60
2022/07/26 10:42:02;;;;;;;31.00;5.63;;;25.50;74.90;;;;;;4998169;28;20044;-60
2022/07/26 10:44:30;;;;;;;16.65;4.45;;;25.60;75.30;;;;;;5005528;28;20045;-61
2022/07/26 10:47:07;;;;;;;33.00;4.85;;;25.60;74.90;;;;;;5007288;28;20033;-61
2022/07/26 10:49:36;;;;;;;25.92;5.35;;;25.60;74.80;;;;;;5006132;28;20025;-61
2022/07/26 10:52:12;;;;;;;26.63;5.95;;;25.60;74.50;;;;;;5010088;28;20068;-60
2022/07/26 10:54:58;;;;;;;24.92;5.50;;;25.60;74.70;;;;;;5012311;28;20106;-61
2022/07/26 10:57:30;;;;;;;28.50;4.88;;;25.70;74.30;;;;;;5011034;28;20367;-61
2022/07/26 10:59:56;;;;;;;19.75;4.80;;;25.70;73.90;;;;;;5007079;28;20045;-61
2022/07/26 11:02:25;;;;;;;19.83;3.65;;;25.80;73.70;;;;;;5012967;28;20033;-60
2022/07/26 11:04:58;;;;;;;76.88;10.40;;;25.70;73.30;;;;;;4996850;28;20033;-61
2022/07/26 11:07:23;;;;;;;31.95;4.45;;;25.80;73.20;;;;;;4979887;28;20144;-61
2022/07/26 11:09:49;;;;;;;42.83;5.70;;;25.80;73.00;;;;;;5013636;28;20032;-61
2022/07/26 11:12:16;;;;;;;33.88;4.28;;;26.00;72.80;;;;;;5012680;28;20037;-61
2022/07/26 11:14:41;;;;;;;22.95;4.50;;;25.90;72.60;;;;;;5009366;28;20427;-61
2022/07/26 11:17:07;;;;;;;20.52;3.95;;;26.00;72.70;;;;;;5014014;28;20045;-61
2022/07/26 11:19:37;;;;;;;29.02;4.53;;;26.00;72.80;;;;;;5008293;28;20058;-61
2022/07/26 11:22:03;;;;;;;26.60;4.38;;;26.00;72.60;;;;;;5016076;28;20045;-61
2022/07/26 11:24:28;;;;;;;21.77;4.57;;;26.00;72.30;;;;;;5014028;28;20661;-61
2022/07/26 11:26:54;;;;;;;25.95;4.80;;;26.00;72.30;;;;;;5010231;28;20040;-61
2022/07/26 11:29:30;;;;;;;23.30;3.88;;;26.00;72.10;;;;;;4992031;28;20034;-61
2022/07/26 11:31:56;;;;;;;30.10;5.18;;;25.90;71.70;;;;;;4991836;28;20065;-61
2022/07/26 11:34:23;;;;;;;46.90;5.75;;;25.90;71.80;;;;;;4997905;28;20155;-61
2022/07/26 11:36:49;;;;;;;40.38;5.25;;;25.90;71.80;;;;;;5001090;28;20037;-61
2022/07/26 11:39:26;;;;;;;23.73;3.95;;;26.00;71.70;;;;;;5010209;28;20152;-61
2022/07/26 11:42:02;;;;;;;14.38;3.30;;;25.90;71.50;;;;;;5009945;28;20041;-61
2022/07/26 11:44:28;;;;;;;21.00;3.60;;;26.00;71.40;;;;;;5005735;28;20037;-64
2022/07/26 11:46:56;;;;;;;15.05;2.83;;;25.90;71.30;;;;;;4999921;28;20457;-61
2022/07/26 11:49:23;;;;;;;16.30;3.28;;;26.00;71.10;;;;;;4991459;28;20022;-61
2022/07/26 11:51:50;;;;;;;21.75;3.35;;;26.00;71.00;;;;;;5007478;28;20037;-60
2022/07/26 11:54:15;;;;;;;6.80;2.28;;;26.10;70.80;;;;;;5015464;28;20025;-61
2022/07/26 11:56:52;;;;;;;11.65;2.60;;;26.10;70.90;;;;;;4994314;28;20379;-61
2022/07/26 11:59:18;;;;;;;11.95;2.13;;;26.20;70.00;;;;;;5007769;28;20036;-61
2022/07/26 12:01:44;;;;;;;6.10;2.17;;;26.20;69.60;;;;;;5015657;28;20029;-63
2022/07/26 12:04:23;;;;;;;5.85;2.05;;;26.20;69.20;;;;;;5016872;28;20624;-60
2022/07/26 12:06:50;;;;;;;8.32;2.45;;;26.20;68.90;;;;;;4994325;28;20128;-61
2022/07/26 12:09:35;;;;;;;6.72;2.05;;;26.20;68.90;;;;;;5007952;28;20030;-61
2022/07/26 12:12:02;;;;;;;10.50;2.05;;;26.20;68.90;;;;;;5010322;28;20040;-61
2022/07/26 12:14:35;;;;;;;11.00;2.17;;;26.20;68.70;;;;;;5010636;28;20300;-61
2022/07/26 12:17:14;;;;;;;9.73;2.15;;;26.30;68.70;;;;;;4998097;28;20300;-61
2022/07/26 12:19:40;;;;;;;9.75;2.40;;;26.30;68.80;;;;;;5016391;28;20520;-61
2022/07/26 12:22:22;;;;;;;7.15;2.38;;;26.30;68.80;;;;;;5008832;28;20037;-61
2022/07/26 12:24:50;;;;;;;12.57;2.53;;;26.30;69.00;;;;;;5011476;28;20038;-61
2022/07/26 12:27:18;;;;;;;8.02;2.20;;;26.40;69.10;;;;;;5007423;28;20067;-61
2022/07/26 12:29:48;;;;;;;6.80;1.92;;;26.40;69.10;;;;;;5016625;28;20025;-60
2022/07/26 12:32:21;;;;;;;7.60;3.00;;;26.40;69.00;;;;;;4993596;28;20034;-60
2022/07/26 12:35:14;;;;;;;6.72;2.20;;;26.50;69.10;;;;;;5014846;28;20034;-61
2022/07/26 12:37:45;;;;;;;8.02;2.28;;;26.50;69.60;;;;;;5006895;28;20211;-61
2022/07/26 12:40:17;;;;;;;9.25;2.65;;;26.50;69.30;;;;;;5012186;28;20042;-62
2022/07/26 12:42:43;;;;;;;8.52;2.47;;;26.60;69.50;;;;;;5013499;28;20044;-65